createdAt,value
2022-09-10T00:01:36.607Z,16.43
2022-09-10T00:04:11.748Z,16.43
2022-09-10T00:06:40.432Z,16.38
2022-09-10T00:09:09.862Z,16.39
2022-09-10T00:11:41.070Z,16.19
2022-09-10T00:14:18.742Z,16.18
2022-09-10T00:16:47.501Z,16.19
2022-09-10T00:19:16.683Z,16.22
2022-09-10T00:21:44.544Z,16.17
2022-09-10T00:24:12.791Z,16.16
2022-09-10T00:26:40.621Z,16.21
2022-09-10T00:29:12.666Z,16.18
2022-09-10T00:31:40.619Z,16.10
2022-09-10T00:34:11.682Z,16.00
2022-09-10T00:36:42.114Z,15.97
2022-09-10T00:39:17.189Z,15.99
2022-09-10T00:41:47.857Z,16.08
2022-09-10T00:44:39.458Z,16.15
2022-09-10T00:47:23.701Z,16.10
2022-09-10T00:50:01.015Z,16.01
2022-09-10T00:52:29.325Z,16.00
2022-09-10T00:54:58.782Z,15.92
2022-09-10T00:57:28.931Z,15.89
2022-09-10T01:00:05.637Z,16.01
2022-09-10T01:02:33.851Z,16.06
2022-09-10T01:05:04.581Z,15.99
2022-09-10T01:07:33.665Z,15.96
2022-09-10T01:10:12.813Z,15.82
2022-09-10T01:13:13.366Z,15.82
2022-09-10T01:15:55.208Z,15.79
2022-09-10T01:18:49.608Z,15.69
2022-09-10T01:22:05.262Z,15.66
2022-09-10T01:25:03.096Z,15.71
2022-09-10T01:27:44.170Z,15.58
2022-09-10T01:30:24.472Z,15.61
2022-09-10T01:33:35.906Z,15.62
2022-09-10T01:36:12.619Z,15.68
2022-09-10T01:38:43.743Z,15.68
2022-09-10T01:41:13.196Z,15.65
2022-09-10T01:43:43.366Z,15.72
2022-09-10T01:46:28.254Z,15.78
2022-09-10T01:49:31.486Z,15.77
2022-09-10T01:52:54.555Z,15.81
2022-09-10T01:55:54.665Z,15.81
2022-09-10T01:58:42.974Z,15.82
2022-09-10T02:01:28.806Z,15.81
2022-09-10T02:04:01.467Z,15.79
2022-09-10T02:06:34.422Z,15.78
2022-09-10T02:09:04.260Z,15.75
2022-09-10T02:11:43.742Z,15.70
2022-09-10T02:14:14.226Z,15.68
2022-09-10T02:17:02.417Z,15.77
2022-09-10T02:19:30.168Z,15.80
2022-09-10T02:21:58.840Z,15.82
2022-09-10T02:24:27.187Z,15.78
2022-09-10T02:26:54.933Z,15.83
2022-09-10T02:29:23.309Z,15.88
2022-09-10T02:31:51.257Z,15.89
2022-09-10T02:34:20.332Z,15.86
2022-09-10T02:36:49.493Z,15.87
2022-09-10T02:39:17.234Z,15.90
2022-09-10T02:41:48.022Z,15.93
2022-09-10T02:44:16.026Z,15.95
2022-09-10T02:46:45.034Z,15.97
2022-09-10T02:49:12.988Z,15.98
2022-09-10T02:51:42.343Z,15.98
2022-09-10T02:54:10.267Z,15.96
2022-09-10T02:56:38.061Z,15.94
2022-09-10T02:59:06.322Z,15.83
2022-09-10T03:01:34.821Z,15.83
2022-09-10T03:04:05.046Z,15.89
2022-09-10T03:06:33.083Z,15.85
2022-09-10T03:09:02.129Z,15.74
2022-09-10T03:11:30.068Z,15.74
2022-09-10T03:13:58.887Z,15.71
2022-09-10T03:16:26.900Z,15.69
2022-09-10T03:18:56.075Z,15.70
2022-09-10T03:21:25.143Z,15.76
2022-09-10T03:23:56.784Z,15.75
2022-09-10T03:26:27.124Z,15.72
2022-09-10T03:28:55.146Z,15.76
2022-09-10T03:31:27.314Z,15.71
2022-09-10T03:33:55.308Z,15.65
2022-09-10T03:36:23.334Z,15.66
2022-09-10T03:38:51.382Z,15.66
2022-09-10T03:41:19.157Z,15.70
2022-09-10T03:43:47.351Z,15.64
2022-09-10T03:46:16.128Z,15.63
2022-09-10T03:48:44.865Z,15.62
2022-09-10T03:51:12.892Z,15.73
2022-09-10T03:53:40.861Z,15.75
2022-09-10T03:56:11.870Z,15.66
2022-09-10T03:58:40.319Z,15.64
2022-09-10T04:01:09.359Z,15.65
2022-09-10T04:03:37.594Z,15.70
2022-09-10T04:06:10.326Z,15.71
2022-09-10T04:08:38.870Z,15.64
2022-09-10T04:11:09.478Z,15.58
2022-09-10T04:13:37.309Z,15.56
2022-09-10T04:16:05.613Z,15.60
2022-09-10T04:18:34.163Z,15.68
2022-09-10T04:21:03.626Z,15.64
2022-09-10T04:23:32.799Z,15.67
2022-09-10T04:26:16.721Z,15.69
2022-09-10T04:28:46.947Z,15.68
2022-09-10T04:31:16.071Z,15.67
2022-09-10T04:33:44.936Z,15.66
2022-09-10T04:36:14.672Z,15.63
2022-09-10T04:38:43.456Z,15.62
2022-09-10T04:41:15.561Z,15.60
2022-09-10T04:43:44.198Z,15.61
2022-09-10T04:46:12.253Z,15.65
2022-09-10T04:48:43.159Z,15.58
2022-09-10T04:51:17.454Z,15.57
2022-09-10T04:53:54.193Z,15.52
2022-09-10T04:56:26.394Z,15.49
2022-09-10T04:58:54.400Z,15.46
2022-09-10T05:01:22.215Z,15.45
2022-09-10T05:03:52.946Z,15.41
2022-09-10T05:06:20.641Z,15.36
2022-09-10T05:08:49.607Z,15.36
2022-09-10T05:11:19.739Z,15.35
2022-09-10T05:13:47.913Z,15.38
2022-09-10T05:16:19.014Z,15.39
2022-09-10T05:18:46.825Z,15.31
2022-09-10T05:21:18.149Z,15.39
2022-09-10T05:23:46.307Z,15.41
2022-09-10T05:26:14.089Z,15.42
2022-09-10T05:28:42.687Z,15.46
2022-09-10T05:31:13.247Z,15.45
2022-09-10T05:33:43.360Z,15.44
2022-09-10T05:36:13.199Z,15.44
2022-09-10T05:38:42.045Z,15.45
2022-09-10T05:41:10.757Z,15.44
2022-09-10T05:43:42.121Z,15.41
2022-09-10T05:46:11.312Z,15.41
2022-09-10T05:48:41.955Z,15.33
2022-09-10T05:51:11.498Z,15.30
2022-09-10T05:53:41.812Z,15.22
2022-09-10T05:56:09.674Z,15.21
2022-09-10T05:58:39.003Z,15.23
2022-09-10T06:01:08.432Z,15.26
2022-09-10T06:03:36.351Z,15.24
2022-09-10T06:06:04.157Z,15.16
2022-09-10T06:08:37.786Z,15.25
2022-09-10T06:11:11.782Z,15.39
2022-09-10T06:13:46.557Z,15.49
2022-09-10T06:16:15.261Z,15.45
2022-09-10T06:18:44.585Z,15.42
2022-09-10T06:21:19.136Z,15.43
2022-09-10T06:23:54.482Z,15.52
2022-09-10T06:26:24.575Z,15.50
2022-09-10T06:28:56.857Z,15.48
2022-09-10T06:31:25.662Z,15.47
2022-09-10T06:33:55.042Z,15.51
2022-09-10T06:36:28.651Z,15.48
2022-09-10T06:38:58.153Z,15.54
2022-09-10T06:41:27.044Z,15.71
2022-09-10T06:44:01.346Z,15.68
2022-09-10T06:47:17.825Z,15.76
2022-09-10T06:49:24.773Z,15.47
2022-09-10T06:51:53.316Z,15.39
2022-09-10T06:54:21.095Z,15.35
2022-09-10T06:56:49.299Z,15.36
2022-09-10T06:59:18.399Z,15.46
2022-09-10T07:01:49.370Z,15.51
2022-09-10T07:04:18.414Z,15.46
2022-09-10T07:06:46.606Z,15.46
2022-09-10T07:09:18.079Z,15.40
2022-09-10T07:11:53.543Z,15.36
2022-09-10T07:14:21.390Z,15.45
2022-09-10T07:16:51.310Z,15.50
2022-09-10T07:19:20.558Z,15.53
2022-09-10T07:21:50.093Z,15.52
2022-09-10T07:24:20.029Z,15.61
2022-09-10T07:26:58.842Z,15.70
2022-09-10T07:29:31.035Z,15.67
2022-09-10T07:31:59.974Z,15.70
2022-09-10T07:34:28.049Z,15.82
2022-09-10T07:36:56.749Z,15.81
2022-09-10T07:39:25.980Z,15.80
2022-09-10T07:41:55.048Z,15.91
2022-09-10T07:44:26.205Z,15.91
2022-09-10T07:46:54.346Z,15.96
2022-09-10T07:49:22.316Z,16.13
2022-09-10T07:51:57.697Z,16.11
2022-09-10T07:54:29.883Z,16.09
2022-09-10T07:56:58.445Z,16.00
2022-09-10T07:59:27.553Z,16.18
2022-09-10T08:02:00.078Z,16.35
2022-09-10T08:04:36.728Z,16.53
2022-09-10T08:07:07.190Z,16.60
2022-09-10T08:09:36.620Z,16.70
2022-09-10T08:12:07.639Z,16.63
2022-09-10T08:14:38.117Z,16.70
2022-09-10T08:17:05.997Z,16.82
2022-09-10T08:19:37.735Z,16.84
2022-09-10T08:22:08.221Z,16.71
2022-09-10T08:24:41.828Z,16.52
2022-09-10T08:27:11.675Z,16.40
2022-09-10T08:29:39.686Z,16.43
2022-09-10T08:32:12.920Z,16.45
2022-09-10T08:34:41.346Z,16.31
2022-09-10T08:37:10.681Z,16.49
2022-09-10T08:39:39.156Z,16.76
2022-09-10T08:42:27.788Z,16.88
2022-09-10T08:45:14.882Z,17.00
2022-09-10T08:48:00.720Z,17.06
2022-09-10T08:51:03.649Z,17.12
2022-09-10T08:53:59.762Z,17.17
2022-09-10T08:56:28.550Z,17.23
2022-09-10T08:59:32.569Z,17.11
2022-09-10T09:02:31.583Z,17.27
2022-09-10T09:05:28.832Z,17.36
2022-09-10T09:08:00.525Z,17.40
2022-09-10T09:11:04.063Z,17.44
2022-09-10T09:13:54.032Z,17.53
2022-09-10T09:16:46.080Z,17.45
2022-09-10T09:19:34.586Z,17.57
2022-09-10T09:22:19.404Z,17.66
2022-09-10T09:25:07.186Z,17.71
2022-09-10T09:27:41.696Z,17.67
2022-09-10T09:30:23.203Z,17.50
2022-09-10T09:32:51.517Z,17.55
2022-09-10T09:35:38.720Z,17.55
2022-09-10T09:38:06.675Z,17.50
2022-09-10T09:40:58.079Z,17.60
2022-09-10T09:43:56.151Z,17.74
2022-09-10T09:46:24.587Z,17.49
2022-09-10T09:49:03.874Z,17.53
2022-09-10T09:51:36.585Z,17.53
2022-09-10T09:57:03.326Z,17.57
2022-09-10T09:59:37.008Z,17.50
2022-09-10T10:02:19.127Z,17.28
2022-09-10T10:05:24.571Z,17.45
2022-09-10T10:07:52.763Z,17.34
2022-09-10T10:10:26.269Z,17.07
2022-09-10T10:12:55.332Z,17.24
2022-09-10T10:15:42.375Z,17.52
2022-09-10T10:18:22.210Z,17.47
2022-09-10T10:21:11.807Z,17.41
2022-09-10T10:23:40.114Z,17.68
2022-09-10T10:26:20.336Z,17.84
2022-09-10T10:28:52.312Z,17.98
2022-09-10T10:31:20.560Z,18.05
2022-09-10T10:34:19.383Z,17.85
2022-09-10T10:37:17.183Z,17.66
2022-09-10T10:40:14.524Z,17.94
2022-09-10T10:43:11.151Z,18.17
2022-09-10T10:46:03.319Z,18.20
2022-09-10T10:48:57.694Z,18.24
2022-09-10T10:52:03.967Z,17.90
2022-09-10T10:55:08.799Z,17.69
2022-09-10T10:58:21.953Z,18.01
2022-09-10T11:00:59.567Z,17.59
2022-09-10T11:03:45.741Z,17.52
2022-09-10T11:06:18.927Z,17.59
2022-09-10T11:08:57.449Z,17.48
2022-09-10T11:11:52.450Z,17.52
2022-09-10T11:14:45.987Z,17.81
2022-09-10T11:17:43.032Z,17.99
2022-09-10T11:20:33.353Z,17.79
2022-09-10T11:23:39.357Z,17.65
2022-09-10T11:26:25.033Z,17.58
2022-09-10T11:29:14.582Z,17.54
2022-09-10T11:31:49.945Z,17.67
2022-09-10T11:34:35.507Z,18.05
2022-09-10T11:37:20.220Z,18.16
2022-09-10T11:39:55.979Z,18.35
2022-09-10T11:42:36.066Z,18.15
2022-09-10T11:45:22.033Z,17.98
2022-09-10T11:48:17.673Z,18.10
2022-09-10T11:51:08.118Z,18.22
2022-09-10T11:53:37.154Z,18.36
2022-09-10T11:56:18.526Z,18.60
2022-09-10T11:59:17.946Z,18.99
2022-09-10T12:02:23.443Z,18.35
2022-09-10T12:05:19.686Z,18.30
2022-09-10T12:07:59.938Z,18.73
2022-09-10T12:11:01.652Z,18.92
2022-09-10T12:13:29.829Z,18.80
2022-09-10T12:16:05.306Z,18.96
2022-09-10T12:18:47.832Z,18.93
2022-09-10T12:21:49.517Z,18.93
2022-09-10T12:24:36.284Z,18.69
2022-09-10T12:27:06.966Z,18.96
2022-09-10T12:29:43.457Z,19.26
2022-09-10T12:32:20.331Z,19.28
2022-09-10T12:35:08.476Z,18.86
2022-09-10T12:37:36.197Z,18.21
2022-09-10T12:40:45.573Z,18.13
2022-09-10T12:43:38.928Z,18.56
2022-09-10T12:46:07.177Z,18.88
2022-09-10T12:48:55.444Z,18.82
2022-09-10T12:51:58.112Z,18.66
2022-09-10T12:55:13.724Z,18.95
2022-09-10T12:58:24.405Z,18.53
2022-09-10T13:00:55.102Z,18.73
2022-09-10T13:03:27.846Z,18.69
2022-09-10T13:05:59.478Z,18.96
2022-09-10T13:08:43.382Z,19.38
2022-09-10T13:11:23.749Z,19.61
2022-09-10T13:14:03.599Z,20.51
2022-09-10T13:16:31.219Z,21.00
2022-09-10T13:19:14.001Z,21.09
2022-09-10T13:21:44.489Z,21.20
2022-09-10T13:24:36.120Z,21.14
2022-09-10T13:27:13.215Z,20.88
2022-09-10T13:29:46.190Z,20.10
2022-09-10T13:32:58.554Z,20.24
2022-09-10T13:35:56.639Z,19.83
2022-09-10T13:38:54.042Z,19.39
2022-09-10T13:41:47.137Z,19.45
2022-09-10T13:44:34.515Z,19.37
2022-09-10T13:47:11.616Z,19.28
2022-09-10T13:50:11.791Z,19.28
2022-09-10T13:52:44.443Z,19.27
2022-09-10T13:55:23.231Z,19.41
2022-09-10T13:57:56.426Z,19.75
2022-09-10T14:00:41.788Z,19.88
2022-09-10T14:03:22.411Z,19.84
2022-09-10T14:05:55.784Z,19.69
2022-09-10T14:08:31.145Z,19.85
2022-09-10T14:11:11.768Z,19.92
2022-09-10T14:13:55.310Z,19.82
2022-09-10T14:16:36.551Z,19.41
2022-09-10T14:19:11.433Z,19.06
2022-09-10T14:21:39.250Z,18.95
2022-09-10T14:24:39.546Z,19.19
2022-09-10T14:27:22.838Z,19.14
2022-09-10T14:29:51.127Z,19.00
2022-09-10T14:32:33.705Z,18.95
2022-09-10T14:35:37.827Z,18.89
2022-09-10T14:38:31.027Z,19.51
2022-09-10T14:41:05.606Z,20.00
2022-09-10T14:43:40.553Z,19.91
2022-09-10T14:46:13.513Z,20.16
2022-09-10T14:49:04.681Z,20.01
2022-09-10T14:51:32.472Z,19.40
2022-09-10T14:54:00.199Z,19.46
2022-09-10T14:56:36.340Z,19.66
2022-09-10T14:59:41.783Z,19.44
2022-09-10T15:02:22.971Z,19.51
2022-09-10T15:04:50.942Z,19.66
2022-09-10T15:07:19.141Z,19.73
2022-09-10T15:09:46.986Z,19.79
2022-09-10T15:12:14.962Z,19.91
2022-09-10T15:14:42.634Z,19.83
2022-09-10T15:17:14.071Z,20.09
2022-09-10T15:19:41.895Z,20.70
2022-09-10T15:22:25.289Z,20.52
2022-09-10T15:25:11.306Z,20.44
2022-09-10T15:27:39.609Z,20.18
2022-09-10T15:30:08.006Z,19.98
2022-09-10T15:32:35.779Z,19.72
2022-09-10T15:35:04.423Z,19.63
2022-09-10T15:37:32.728Z,19.81
2022-09-10T15:40:01.068Z,19.52
2022-09-10T15:42:30.809Z,19.13
2022-09-10T15:44:58.617Z,18.86
2022-09-10T15:47:27.419Z,18.65
2022-09-10T15:49:56.370Z,18.55
2022-09-10T15:52:24.202Z,18.62
2022-09-10T15:54:52.411Z,18.73
2022-09-10T15:57:20.239Z,18.58
2022-09-10T15:59:47.991Z,18.67
2022-09-10T16:02:15.865Z,18.91
2022-09-10T16:04:44.366Z,19.07
2022-09-10T16:07:12.090Z,19.02
2022-09-10T16:09:40.390Z,18.87
2022-09-10T16:12:08.260Z,18.56
2022-09-10T16:14:36.017Z,18.24
2022-09-10T16:17:10.375Z,18.25
2022-09-10T16:19:38.762Z,18.33
2022-09-10T16:22:06.662Z,18.29
2022-09-10T16:24:34.519Z,18.07
2022-09-10T16:27:02.465Z,17.96
2022-09-10T16:29:31.202Z,17.91
2022-09-10T16:31:59.838Z,18.00
2022-09-10T16:34:27.636Z,17.94
2022-09-10T16:36:55.342Z,17.79
2022-09-10T16:39:23.269Z,17.75
2022-09-10T16:41:51.087Z,17.80
2022-09-10T16:44:19.309Z,17.82
2022-09-10T16:46:47.799Z,17.75
2022-09-10T16:49:18.432Z,17.67
2022-09-10T16:51:49.169Z,17.62
2022-09-10T16:54:21.278Z,17.59
2022-09-10T16:56:50.339Z,17.52
2022-09-10T16:59:23.661Z,17.39
2022-09-10T17:01:52.483Z,17.25
2022-09-10T17:04:28.170Z,17.21
2022-09-10T17:06:58.078Z,17.20
2022-09-10T17:09:26.066Z,17.06
2022-09-10T17:11:53.869Z,16.96
2022-09-10T17:14:21.738Z,16.98
2022-09-10T17:16:49.917Z,16.98
2022-09-10T17:19:23.537Z,16.98
2022-09-10T17:21:55.464Z,16.84
2022-09-10T17:24:26.655Z,16.82
2022-09-10T17:26:57.955Z,16.72
2022-09-10T17:29:26.205Z,16.71
2022-09-10T17:31:57.640Z,16.69
2022-09-10T17:34:26.465Z,16.69
2022-09-10T17:36:54.557Z,16.67
2022-09-10T17:39:28.043Z,16.57
2022-09-10T17:41:56.423Z,16.58
2022-09-10T17:44:25.578Z,16.61
2022-09-10T17:46:53.559Z,16.57
2022-09-10T17:49:21.277Z,16.52
2022-09-10T17:51:48.992Z,16.44
2022-09-10T17:54:18.150Z,16.39
2022-09-10T17:56:45.880Z,16.38
2022-09-10T17:59:14.259Z,16.38
2022-09-10T18:01:42.958Z,16.31
2022-09-10T18:04:15.667Z,16.31
2022-09-10T18:06:46.791Z,16.31
2022-09-10T18:09:17.320Z,16.22
2022-09-10T18:11:45.096Z,16.10
2022-09-10T18:14:21.449Z,16.11
2022-09-10T18:16:49.370Z,16.12
2022-09-10T18:19:18.304Z,16.11
2022-09-10T18:21:47.919Z,16.10
2022-09-10T18:24:28.090Z,16.10
2022-09-10T18:26:56.448Z,16.07
2022-09-10T18:29:27.800Z,16.05
2022-09-10T18:32:00.564Z,16.08
2022-09-10T18:34:31.062Z,16.03
2022-09-10T18:37:02.460Z,16.03
2022-09-10T18:39:33.202Z,16.03
2022-09-10T18:42:01.187Z,16.04
2022-09-10T18:44:34.375Z,16.04
2022-09-10T18:47:03.292Z,16.00
2022-09-10T18:49:31.041Z,15.94
2022-09-10T18:51:59.303Z,15.92
2022-09-10T18:54:30.119Z,15.90
2022-09-10T18:56:58.094Z,15.87
2022-09-10T18:59:26.641Z,15.84
2022-09-10T19:01:55.849Z,15.83
2022-09-10T19:04:27.914Z,15.82
2022-09-10T19:06:57.533Z,15.80
2022-09-10T19:09:29.422Z,15.80
2022-09-10T19:12:00.391Z,15.80
2022-09-10T19:14:31.849Z,15.84
2022-09-10T19:17:01.501Z,15.77
2022-09-10T19:19:33.027Z,15.62
2022-09-10T19:22:06.066Z,15.65
2022-09-10T19:24:54.127Z,15.72
2022-09-10T19:27:24.237Z,15.80
2022-09-10T19:29:53.357Z,15.86
2022-09-10T19:32:21.922Z,15.89
2022-09-10T19:34:51.267Z,15.90
2022-09-10T19:37:19.912Z,15.92
2022-09-10T19:39:47.887Z,15.91
2022-09-10T19:42:16.305Z,15.89
2022-09-10T19:44:44.137Z,15.66
2022-09-10T19:47:11.816Z,15.55
2022-09-10T19:49:39.633Z,15.59
2022-09-10T19:52:07.363Z,15.66
2022-09-10T19:54:35.047Z,15.72
2022-09-10T19:57:02.744Z,15.72
2022-09-10T19:59:30.466Z,15.76
2022-09-10T20:01:58.376Z,15.85
2022-09-10T20:04:27.590Z,15.88
2022-09-10T20:06:55.282Z,15.86
2022-09-10T20:09:23.014Z,15.88
2022-09-10T20:11:51.257Z,15.91
2022-09-10T20:14:20.206Z,15.91
2022-09-10T20:16:47.984Z,15.81
2022-09-10T20:19:18.502Z,15.71
2022-09-10T20:21:47.658Z,15.73
2022-09-10T20:24:16.596Z,15.82
2022-09-10T20:26:46.236Z,15.88
2022-09-10T20:29:17.982Z,15.90
2022-09-10T20:31:46.954Z,15.91
2022-09-10T20:34:19.693Z,15.89
2022-09-10T20:36:52.457Z,15.85
2022-09-10T20:39:25.280Z,15.85
2022-09-10T20:41:53.108Z,15.90
2022-09-10T20:44:21.018Z,15.90
2022-09-10T20:46:49.160Z,15.89
2022-09-10T20:49:17.518Z,15.89
2022-09-10T20:51:45.450Z,15.92
2022-09-10T20:54:17.106Z,15.88
2022-09-10T20:56:45.888Z,15.78
2022-09-10T20:59:16.736Z,15.75
2022-09-10T21:01:46.284Z,15.77
2022-09-10T21:04:14.829Z,15.85
2022-09-10T21:06:43.021Z,15.88
2022-09-10T21:09:11.910Z,15.87
2022-09-10T21:11:39.883Z,15.77
2022-09-10T21:14:08.595Z,15.76
2022-09-10T21:16:40.394Z,15.78
2022-09-10T21:19:15.610Z,15.78
2022-09-10T21:21:45.688Z,15.79
2022-09-10T21:24:17.400Z,15.80
2022-09-10T21:26:45.855Z,15.86
2022-09-10T21:29:17.197Z,15.94
2022-09-10T21:31:45.798Z,15.85
2022-09-10T21:34:14.842Z,15.75
2022-09-10T21:36:43.794Z,15.70
2022-09-10T21:39:17.354Z,15.70
2022-09-10T21:41:48.866Z,15.71
2022-09-10T21:44:22.875Z,15.70
2022-09-10T21:46:51.764Z,15.64
2022-09-10T21:49:20.574Z,15.61
2022-09-10T21:51:48.437Z,15.64
2022-09-10T21:54:20.819Z,15.77
2022-09-10T21:56:50.646Z,15.85
2022-09-10T21:59:20.358Z,15.88
2022-09-10T22:01:49.032Z,15.90
2022-09-10T22:04:22.079Z,15.90
2022-09-10T22:06:51.370Z,15.93
2022-09-10T22:09:20.500Z,15.94
2022-09-10T22:11:51.779Z,15.93
2022-09-10T22:14:23.290Z,15.94
2022-09-10T22:16:52.230Z,15.94
2022-09-10T22:19:25.769Z,15.92
2022-09-10T22:21:54.208Z,15.91
2022-09-10T22:24:22.161Z,15.91
2022-09-10T22:26:50.047Z,15.87
2022-09-10T22:29:20.316Z,15.80
2022-09-10T22:31:50.085Z,15.73
2022-09-10T22:34:19.067Z,15.80
2022-09-10T22:36:49.412Z,15.86
2022-09-10T22:39:20.226Z,15.87
2022-09-10T22:41:50.489Z,15.85
2022-09-10T22:44:19.371Z,15.76
2022-09-10T22:46:47.731Z,15.68
2022-09-10T22:49:17.050Z,15.71
2022-09-10T22:51:44.903Z,15.83
2022-09-10T22:54:13.738Z,15.87
2022-09-10T22:56:41.981Z,15.89
2022-09-10T22:59:13.862Z,15.89
2022-09-10T23:01:43.310Z,15.90
2022-09-10T23:04:11.353Z,15.87
2022-09-10T23:06:40.051Z,15.79
2022-09-10T23:09:12.764Z,15.82
2022-09-10T23:11:41.826Z,15.85
2022-09-10T23:14:22.178Z,15.85
2022-09-10T23:16:51.752Z,15.84
2022-09-10T23:19:24.109Z,15.85
2022-09-10T23:21:55.059Z,15.86
2022-09-10T23:24:26.434Z,15.81
2022-09-10T23:26:55.283Z,15.75
2022-09-10T23:29:24.098Z,15.61
2022-09-10T23:31:55.679Z,15.55
2022-09-10T23:34:23.468Z,15.51
2022-09-10T23:36:52.446Z,15.48
2022-09-10T23:39:23.710Z,15.47
2022-09-10T23:41:56.930Z,15.50
2022-09-10T23:44:25.931Z,15.50
2022-09-10T23:46:53.726Z,15.53
2022-09-10T23:49:23.919Z,15.51
2022-09-10T23:51:52.130Z,15.46
2022-09-10T23:54:19.799Z,15.50
2022-09-10T23:56:47.506Z,15.49
2022-09-10T23:59:15.346Z,15.47
